Filley, Nebraska
Current Conditions -  °F | °C
As of 3:35 AM on Thursday 27 Nov 2014 (Local Time) from KBIE Reporting Station
Clear Clear  
Wind Chill:   Ceiling: Unl
Heat Index: 17°   Visibility: 10mi
Dew Point: 13°   Wind: 6mph
Humidity: 86%   Direction: 20°NNE
Pressure: 30.47"   Gusts: NA
Location:  40.29°N, 96.54°W
Report Text: KBIE 270935Z AUTO 02005KT 10SM CLR M09/M11 A3047 RMK AO2 T10861106
Loading
Personal Weather Stations






























Interactive Weather Map New forecast layout! Learn more

10-Day Weather Forecast

Advertisements
Track Severe Weather on mobile